sensor_id;sensor_type;location;lat;lon;timestamp;P1;durP1;ratioP1;P2;durP2;ratioP2
17913;SDS011;9082;50.742;8.238;2022-07-06T00:02:13;6.33;;;3.43;;
17913;SDS011;9082;50.742;8.238;2022-07-06T00:04:42;8.13;;;3.73;;
17913;SDS011;9082;50.742;8.238;2022-07-06T00:07:09;6.10;;;3.27;;
17913;SDS011;9082;50.742;8.238;2022-07-06T00:09:37;5.23;;;3.23;;
17913;SDS011;9082;50.742;8.238;2022-07-06T00:12:04;5.97;;;3.70;;
17913;SDS011;9082;50.742;8.238;2022-07-06T00:14:32;8.97;;;3.47;;
17913;SDS011;9082;50.742;8.238;2022-07-06T00:16:59;7.27;;;3.27;;
17913;SDS011;9082;50.742;8.238;2022-07-06T00:19:27;6.10;;;3.17;;
17913;SDS011;9082;50.742;8.238;2022-07-06T00:21:55;6.57;;;3.37;;
17913;SDS011;9082;50.742;8.238;2022-07-06T00:24:23;6.50;;;3.37;;
17913;SDS011;9082;50.742;8.238;2022-07-06T00:26:51;5.40;;;3.60;;
17913;SDS011;9082;50.742;8.238;2022-07-06T00:29:18;4.87;;;3.17;;
17913;SDS011;9082;50.742;8.238;2022-07-06T00:31:46;7.67;;;3.33;;
17913;SDS011;9082;50.742;8.238;2022-07-06T00:34:13;6.27;;;3.50;;
17913;SDS011;9082;50.742;8.238;2022-07-06T00:36:41;4.93;;;3.47;;
17913;SDS011;9082;50.742;8.238;2022-07-06T00:39:10;5.87;;;3.93;;
17913;SDS011;9082;50.742;8.238;2022-07-06T00:41:37;9.77;;;3.57;;
17913;SDS011;9082;50.742;8.238;2022-07-06T00:44:06;11.70;;;3.70;;
17913;SDS011;9082;50.742;8.238;2022-07-06T00:46:36;7.33;;;3.43;;
17913;SDS011;9082;50.742;8.238;2022-07-06T00:49:03;6.03;;;3.70;;
17913;SDS011;9082;50.742;8.238;2022-07-06T00:51:51;6.83;;;3.90;;
17913;SDS011;9082;50.742;8.238;2022-07-06T00:54:20;5.60;;;3.60;;
17913;SDS011;9082;50.742;8.238;2022-07-06T00:56:48;10.10;;;4.30;;
17913;SDS011;9082;50.742;8.238;2022-07-06T00:59:15;6.67;;;3.63;;
17913;SDS011;9082;50.742;8.238;2022-07-06T01:01:44;7.97;;;3.90;;
17913;SDS011;9082;50.742;8.238;2022-07-06T01:04:11;10.60;;;3.80;;
17913;SDS011;9082;50.742;8.238;2022-07-06T01:06:39;6.83;;;3.73;;
17913;SDS011;9082;50.742;8.238;2022-07-06T01:09:06;8.93;;;3.37;;
17913;SDS011;9082;50.742;8.238;2022-07-06T01:11:45;8.27;;;4.00;;
17913;SDS011;9082;50.742;8.238;2022-07-06T01:14:12;7.50;;;3.80;;
17913;SDS011;9082;50.742;8.238;2022-07-06T01:16:53;8.10;;;4.00;;
17913;SDS011;9082;50.742;8.238;2022-07-06T01:19:21;6.90;;;3.47;;
17913;SDS011;9082;50.742;8.238;2022-07-06T01:21:51;7.33;;;3.73;;
17913;SDS011;9082;50.742;8.238;2022-07-06T01:24:18;6.30;;;3.50;;
17913;SDS011;9082;50.742;8.238;2022-07-06T01:26:53;7.80;;;3.60;;
17913;SDS011;9082;50.742;8.238;2022-07-06T01:29:26;7.53;;;3.27;;
17913;SDS011;9082;50.742;8.238;2022-07-06T01:31:54;4.93;;;3.50;;
17913;SDS011;9082;50.742;8.238;2022-07-06T01:34:21;6.10;;;3.50;;
17913;SDS011;9082;50.742;8.238;2022-07-06T01:36:50;4.80;;;3.37;;
17913;SDS011;9082;50.742;8.238;2022-07-06T01:39:18;3.50;;;3.13;;
17913;SDS011;9082;50.742;8.238;2022-07-06T01:41:45;7.70;;;3.83;;
17913;SDS011;9082;50.742;8.238;2022-07-06T01:44:13;6.80;;;3.17;;
17913;SDS011;9082;50.742;8.238;2022-07-06T01:46:40;7.37;;;3.73;;
17913;SDS011;9082;50.742;8.238;2022-07-06T01:49:07;7.33;;;3.60;;
17913;SDS011;9082;50.742;8.238;2022-07-06T01:51:35;6.23;;;3.40;;
17913;SDS011;9082;50.742;8.238;2022-07-06T01:54:04;5.73;;;3.50;;
17913;SDS011;9082;50.742;8.238;2022-07-06T01:56:31;6.77;;;3.30;;
17913;SDS011;9082;50.742;8.238;2022-07-06T01:58:59;5.97;;;3.50;;
17913;SDS011;9082;50.742;8.238;2022-07-06T02:01:27;8.20;;;3.33;;
17913;SDS011;9082;50.742;8.238;2022-07-06T02:03:54;5.80;;;3.30;;
17913;SDS011;9082;50.742;8.238;2022-07-06T02:06:23;6.67;;;3.20;;
17913;SDS011;9082;50.742;8.238;2022-07-06T02:08:50;11.17;;;2.93;;
17913;SDS011;9082;50.742;8.238;2022-07-06T02:11:25;8.10;;;3.27;;
17913;SDS011;9082;50.742;8.238;2022-07-06T02:13:53;5.90;;;3.27;;
17913;SDS011;9082;50.742;8.238;2022-07-06T02:16:23;7.73;;;3.93;;
17913;SDS011;9082;50.742;8.238;2022-07-06T02:18:50;6.27;;;3.10;;
17913;SDS011;9082;50.742;8.238;2022-07-06T02:21:17;6.43;;;3.50;;
17913;SDS011;9082;50.742;8.238;2022-07-06T02:23:45;4.67;;;3.40;;
17913;SDS011;9082;50.742;8.238;2022-07-06T02:26:13;5.97;;;3.50;;
17913;SDS011;9082;50.742;8.238;2022-07-06T02:28:41;11.17;;;3.77;;
17913;SDS011;9082;50.742;8.238;2022-07-06T02:31:10;7.67;;;3.50;;
17913;SDS011;9082;50.742;8.238;2022-07-06T02:33:38;3.70;;;3.00;;
17913;SDS011;9082;50.742;8.238;2022-07-06T02:36:05;7.20;;;3.10;;
17913;SDS011;9082;50.742;8.238;2022-07-06T02:38:34;5.80;;;3.60;;
17913;SDS011;9082;50.742;8.238;2022-07-06T02:41:02;6.27;;;3.10;;
17913;SDS011;9082;50.742;8.238;2022-07-06T02:43:32;6.33;;;3.43;;
17913;SDS011;9082;50.742;8.238;2022-07-06T02:46:04;4.37;;;3.00;;
17913;SDS011;9082;50.742;8.238;2022-07-06T02:48:31;5.53;;;3.27;;
17913;SDS011;9082;50.742;8.238;2022-07-06T02:50:59;11.57;;;3.37;;
17913;SDS011;9082;50.742;8.238;2022-07-06T02:53:26;8.57;;;3.50;;
17913;SDS011;9082;50.742;8.238;2022-07-06T02:55:54;5.70;;;3.33;;
17913;SDS011;9082;50.742;8.238;2022-07-06T02:58:21;6.80;;;3.20;;
17913;SDS011;9082;50.742;8.238;2022-07-06T03:00:48;6.03;;;3.23;;
17913;SDS011;9082;50.742;8.238;2022-07-06T03:03:20;5.87;;;3.50;;
17913;SDS011;9082;50.742;8.238;2022-07-06T03:05:48;6.57;;;3.13;;
17913;SDS011;9082;50.742;8.238;2022-07-06T03:08:18;6.13;;;3.13;;
17913;SDS011;9082;50.742;8.238;2022-07-06T03:10:46;4.40;;;3.00;;
17913;SDS011;9082;50.742;8.238;2022-07-06T03:13:13;5.37;;;3.20;;
17913;SDS011;9082;50.742;8.238;2022-07-06T03:15:40;6.67;;;3.20;;
17913;SDS011;9082;50.742;8.238;2022-07-06T03:18:08;6.00;;;3.53;;
17913;SDS011;9082;50.742;8.238;2022-07-06T03:20:39;6.33;;;3.37;;
17913;SDS011;9082;50.742;8.238;2022-07-06T03:23:06;5.77;;;3.40;;
17913;SDS011;9082;50.742;8.238;2022-07-06T03:25:34;4.40;;;3.10;;
17913;SDS011;9082;50.742;8.238;2022-07-06T03:28:01;8.57;;;3.10;;
17913;SDS011;9082;50.742;8.238;2022-07-06T03:30:29;10.43;;;3.30;;
17913;SDS011;9082;50.742;8.238;2022-07-06T03:32:56;9.33;;;3.27;;
17913;SDS011;9082;50.742;8.238;2022-07-06T03:35:24;11.97;;;3.17;;
17913;SDS011;9082;50.742;8.238;2022-07-06T03:37:52;15.43;;;3.67;;
17913;SDS011;9082;50.742;8.238;2022-07-06T03:40:20;11.57;;;3.47;;
17913;SDS011;9082;50.742;8.238;2022-07-06T03:42:47;13.13;;;3.87;;
17913;SDS011;9082;50.742;8.238;2022-07-06T03:45:15;8.33;;;3.13;;
17913;SDS011;9082;50.742;8.238;2022-07-06T03:47:45;8.23;;;3.23;;
17913;SDS011;9082;50.742;8.238;2022-07-06T03:50:12;6.83;;;3.50;;
17913;SDS011;9082;50.742;8.238;2022-07-06T03:55:39;7.80;;;3.00;;
17913;SDS011;9082;50.742;8.238;2022-07-06T03:58:06;17.23;;;3.47;;
17913;SDS011;9082;50.742;8.238;2022-07-06T04:00:33;7.13;;;3.40;;
17913;SDS011;9082;50.742;8.238;2022-07-06T04:03:01;7.07;;;3.07;;
17913;SDS011;9082;50.742;8.238;2022-07-06T04:05:28;6.00;;;3.10;;
17913;SDS011;9082;50.742;8.238;2022-07-06T04:07:55;4.53;;;2.50;;
17913;SDS011;9082;50.742;8.238;2022-07-06T04:10:23;10.87;;;3.90;;
17913;SDS011;9082;50.742;8.238;2022-07-06T04:12:51;6.00;;;3.20;;
17913;SDS011;9082;50.742;8.238;2022-07-06T04:15:19;5.57;;;3.10;;
17913;SDS011;9082;50.742;8.238;2022-07-06T04:17:46;10.30;;;3.20;;
17913;SDS011;9082;50.742;8.238;2022-07-06T04:20:21;11.33;;;3.40;;
17913;SDS011;9082;50.742;8.238;2022-07-06T04:22:49;8.97;;;3.50;;
17913;SDS011;9082;50.742;8.238;2022-07-06T04:25:16;10.97;;;3.40;;
17913;SDS011;9082;50.742;8.238;2022-07-06T04:27:43;16.57;;;3.23;;
17913;SDS011;9082;50.742;8.238;2022-07-06T04:30:12;13.33;;;3.20;;
17913;SDS011;9082;50.742;8.238;2022-07-06T04:32:40;14.53;;;3.20;;
17913;SDS011;9082;50.742;8.238;2022-07-06T04:35:11;17.17;;;3.33;;
17913;SDS011;9082;50.742;8.238;2022-07-06T04:37:38;13.70;;;2.77;;
17913;SDS011;9082;50.742;8.238;2022-07-06T04:40:06;6.70;;;2.57;;
17913;SDS011;9082;50.742;8.238;2022-07-06T04:42:34;7.23;;;2.70;;
17913;SDS011;9082;50.742;8.238;2022-07-06T04:45:01;9.60;;;2.80;;
17913;SDS011;9082;50.742;8.238;2022-07-06T04:47:30;7.47;;;2.90;;
17913;SDS011;9082;50.742;8.238;2022-07-06T04:49:57;5.40;;;2.73;;
17913;SDS011;9082;50.742;8.238;2022-07-06T04:52:36;7.70;;;2.63;;
17913;SDS011;9082;50.742;8.238;2022-07-06T04:55:04;6.60;;;2.77;;
17913;SDS011;9082;50.742;8.238;2022-07-06T04:57:31;4.23;;;2.07;;
17913;SDS011;9082;50.742;8.238;2022-07-06T04:59:58;5.47;;;2.50;;
17913;SDS011;9082;50.742;8.238;2022-07-06T05:02:26;5.37;;;2.47;;
17913;SDS011;9082;50.742;8.238;2022-07-06T05:04:55;5.33;;;2.20;;
17913;SDS011;9082;50.742;8.238;2022-07-06T05:07:24;4.60;;;2.30;;
17913;SDS011;9082;50.742;8.238;2022-07-06T05:09:54;5.87;;;1.90;;
17913;SDS011;9082;50.742;8.238;2022-07-06T05:12:22;6.93;;;2.40;;
17913;SDS011;9082;50.742;8.238;2022-07-06T05:14:49;5.17;;;2.20;;
17913;SDS011;9082;50.742;8.238;2022-07-06T05:17:17;3.80;;;2.00;;
17913;SDS011;9082;50.742;8.238;2022-07-06T05:19:45;7.43;;;2.17;;
17913;SDS011;9082;50.742;8.238;2022-07-06T05:22:16;5.20;;;2.10;;
17913;SDS011;9082;50.742;8.238;2022-07-06T05:24:44;6.27;;;2.17;;
17913;SDS011;9082;50.742;8.238;2022-07-06T05:27:11;3.10;;;1.73;;
17913;SDS011;9082;50.742;8.238;2022-07-06T05:29:39;7.20;;;1.80;;
17913;SDS011;9082;50.742;8.238;2022-07-06T05:32:06;5.07;;;2.17;;
17913;SDS011;9082;50.742;8.238;2022-07-06T05:34:39;5.93;;;1.90;;
17913;SDS011;9082;50.742;8.238;2022-07-06T05:37:06;3.67;;;2.10;;
17913;SDS011;9082;50.742;8.238;2022-07-06T05:39:35;3.67;;;2.10;;
17913;SDS011;9082;50.742;8.238;2022-07-06T05:42:09;4.60;;;2.07;;
17913;SDS011;9082;50.742;8.238;2022-07-06T05:44:36;6.33;;;2.13;;
17913;SDS011;9082;50.742;8.238;2022-07-06T05:47:03;7.03;;;2.47;;
17913;SDS011;9082;50.742;8.238;2022-07-06T05:49:48;3.90;;;1.70;;
17913;SDS011;9082;50.742;8.238;2022-07-06T05:52:33;4.37;;;2.00;;
17913;SDS011;9082;50.742;8.238;2022-07-06T05:55:02;7.00;;;2.07;;
17913;SDS011;9082;50.742;8.238;2022-07-06T05:57:30;4.90;;;2.33;;
17913;SDS011;9082;50.742;8.238;2022-07-06T05:59:57;4.60;;;2.20;;
17913;SDS011;9082;50.742;8.238;2022-07-06T06:02:39;4.77;;;2.00;;
17913;SDS011;9082;50.742;8.238;2022-07-06T06:05:13;6.53;;;2.20;;
17913;SDS011;9082;50.742;8.238;2022-07-06T06:07:41;4.13;;;1.80;;
17913;SDS011;9082;50.742;8.238;2022-07-06T06:10:11;3.93;;;1.87;;
17913;SDS011;9082;50.742;8.238;2022-07-06T06:12:39;6.97;;;1.97;;
17913;SDS011;9082;50.742;8.238;2022-07-06T06:15:06;4.73;;;1.87;;
17913;SDS011;9082;50.742;8.238;2022-07-06T06:17:34;6.83;;;1.83;;
17913;SDS011;9082;50.742;8.238;2022-07-06T06:20:04;4.70;;;2.00;;
17913;SDS011;9082;50.742;8.238;2022-07-06T06:22:31;4.60;;;2.20;;
17913;SDS011;9082;50.742;8.238;2022-07-06T06:24:59;4.33;;;2.10;;
17913;SDS011;9082;50.742;8.238;2022-07-06T06:27:27;7.07;;;1.80;;
17913;SDS011;9082;50.742;8.238;2022-07-06T06:29:55;3.80;;;1.77;;
17913;SDS011;9082;50.742;8.238;2022-07-06T06:32:22;5.03;;;1.90;;
17913;SDS011;9082;50.742;8.238;2022-07-06T06:34:50;4.20;;;2.00;;
17913;SDS011;9082;50.742;8.238;2022-07-06T06:37:17;3.23;;;1.77;;
17913;SDS011;9082;50.742;8.238;2022-07-06T06:39:47;4.50;;;1.70;;
17913;SDS011;9082;50.742;8.238;2022-07-06T06:42:14;3.37;;;1.97;;
17913;SDS011;9082;50.742;8.238;2022-07-06T06:44:43;4.53;;;1.90;;
17913;SDS011;9082;50.742;8.238;2022-07-06T06:47:10;3.70;;;1.30;;
17913;SDS011;9082;50.742;8.238;2022-07-06T06:49:37;2.90;;;1.50;;
17913;SDS011;9082;50.742;8.238;2022-07-06T06:52:12;5.80;;;1.53;;
17913;SDS011;9082;50.742;8.238;2022-07-06T06:54:40;5.20;;;1.97;;
17913;SDS011;9082;50.742;8.238;2022-07-06T06:57:07;4.83;;;1.67;;
17913;SDS011;9082;50.742;8.238;2022-07-06T06:59:34;7.03;;;2.00;;
17913;SDS011;9082;50.742;8.238;2022-07-06T07:02:03;4.83;;;1.83;;
17913;SDS011;9082;50.742;8.238;2022-07-06T07:04:31;4.90;;;1.40;;
17913;SDS011;9082;50.742;8.238;2022-07-06T07:06:58;4.87;;;1.90;;
17913;SDS011;9082;50.742;8.238;2022-07-06T07:09:26;3.70;;;1.60;;
17913;SDS011;9082;50.742;8.238;2022-07-06T07:11:53;4.43;;;1.57;;
17913;SDS011;9082;50.742;8.238;2022-07-06T07:14:21;5.77;;;1.90;;
17913;SDS011;9082;50.742;8.238;2022-07-06T07:16:48;5.57;;;1.60;;
17913;SDS011;9082;50.742;8.238;2022-07-06T07:19:17;3.80;;;1.80;;
17913;SDS011;9082;50.742;8.238;2022-07-06T07:21:44;3.43;;;1.60;;
17913;SDS011;9082;50.742;8.238;2022-07-06T07:24:14;4.87;;;1.63;;
17913;SDS011;9082;50.742;8.238;2022-07-06T07:26:44;6.17;;;1.50;;
17913;SDS011;9082;50.742;8.238;2022-07-06T07:29:12;4.70;;;1.77;;
17913;SDS011;9082;50.742;8.238;2022-07-06T07:31:39;5.57;;;1.70;;
17913;SDS011;9082;50.742;8.238;2022-07-06T07:34:06;5.57;;;1.50;;
17913;SDS011;9082;50.742;8.238;2022-07-06T07:36:35;2.40;;;1.17;;
17913;SDS011;9082;50.742;8.238;2022-07-06T07:39:03;6.70;;;1.70;;
17913;SDS011;9082;50.742;8.238;2022-07-06T07:41:30;4.97;;;1.53;;
17913;SDS011;9082;50.742;8.238;2022-07-06T07:43:58;3.93;;;1.30;;
17913;SDS011;9082;50.742;8.238;2022-07-06T07:46:25;4.63;;;1.43;;
17913;SDS011;9082;50.742;8.238;2022-07-06T07:48:52;4.10;;;1.23;;
17913;SDS011;9082;50.742;8.238;2022-07-06T07:51:20;5.03;;;1.23;;
17913;SDS011;9082;50.742;8.238;2022-07-06T07:53:48;2.03;;;1.10;;
17913;SDS011;9082;50.742;8.238;2022-07-06T07:56:16;3.77;;;1.33;;
17913;SDS011;9082;50.742;8.238;2022-07-06T07:58:43;3.10;;;0.97;;
17913;SDS011;9082;50.742;8.238;2022-07-06T08:01:25;3.07;;;1.10;;
17913;SDS011;9082;50.742;8.238;2022-07-06T08:03:52;3.40;;;1.27;;
17913;SDS011;9082;50.742;8.238;2022-07-06T08:06:19;3.93;;;1.20;;
17913;SDS011;9082;50.742;8.238;2022-07-06T08:08:48;3.67;;;1.43;;
17913;SDS011;9082;50.742;8.238;2022-07-06T08:11:16;3.83;;;1.60;;
17913;SDS011;9082;50.742;8.238;2022-07-06T08:13:43;5.53;;;1.87;;
17913;SDS011;9082;50.742;8.238;2022-07-06T08:16:14;3.97;;;1.20;;
17913;SDS011;9082;50.742;8.238;2022-07-06T08:18:41;5.77;;;1.40;;
17913;SDS011;9082;50.742;8.238;2022-07-06T08:21:08;3.90;;;1.53;;
17913;SDS011;9082;50.742;8.238;2022-07-06T08:23:36;3.30;;;1.30;;
17913;SDS011;9082;50.742;8.238;2022-07-06T08:26:05;2.60;;;1.20;;
17913;SDS011;9082;50.742;8.238;2022-07-06T08:28:32;3.50;;;1.20;;
17913;SDS011;9082;50.742;8.238;2022-07-06T08:30:59;2.90;;;1.27;;
17913;SDS011;9082;50.742;8.238;2022-07-06T08:33:27;4.73;;;1.30;;
17913;SDS011;9082;50.742;8.238;2022-07-06T08:35:54;4.10;;;1.40;;
17913;SDS011;9082;50.742;8.238;2022-07-06T08:38:24;4.50;;;1.30;;
17913;SDS011;9082;50.742;8.238;2022-07-06T08:40:52;2.57;;;1.10;;
17913;SDS011;9082;50.742;8.238;2022-07-06T08:43:21;4.10;;;1.07;;
17913;SDS011;9082;50.742;8.238;2022-07-06T08:45:49;2.40;;;0.93;;
17913;SDS011;9082;50.742;8.238;2022-07-06T08:48:17;1.50;;;0.90;;
17913;SDS011;9082;50.742;8.238;2022-07-06T08:50:45;4.97;;;1.00;;
17913;SDS011;9082;50.742;8.238;2022-07-06T08:53:12;3.43;;;0.80;;
17913;SDS011;9082;50.742;8.238;2022-07-06T08:55:39;4.20;;;1.20;;
17913;SDS011;9082;50.742;8.238;2022-07-06T08:58:07;2.60;;;1.10;;
17913;SDS011;9082;50.742;8.238;2022-07-06T09:00:36;1.90;;;1.20;;
17913;SDS011;9082;50.742;8.238;2022-07-06T09:03:04;2.63;;;1.13;;
17913;SDS011;9082;50.742;8.238;2022-07-06T09:05:39;2.83;;;1.20;;
17913;SDS011;9082;50.742;8.238;2022-07-06T09:08:36;6.70;;;1.00;;
17913;SDS011;9082;50.742;8.238;2022-07-06T09:11:04;3.73;;;1.10;;
17913;SDS011;9082;50.742;8.238;2022-07-06T09:13:31;2.30;;;1.00;;
17913;SDS011;9082;50.742;8.238;2022-07-06T09:16:10;3.40;;;1.07;;
17913;SDS011;9082;50.742;8.238;2022-07-06T09:18:37;2.30;;;0.90;;
17913;SDS011;9082;50.742;8.238;2022-07-06T09:21:06;6.70;;;1.47;;
17913;SDS011;9082;50.742;8.238;2022-07-06T09:23:33;3.17;;;1.23;;
17913;SDS011;9082;50.742;8.238;2022-07-06T09:26:05;5.17;;;1.13;;
17913;SDS011;9082;50.742;8.238;2022-07-06T09:28:41;5.03;;;1.50;;
17913;SDS011;9082;50.742;8.238;2022-07-06T09:31:11;3.43;;;1.40;;
17913;SDS011;9082;50.742;8.238;2022-07-06T09:33:38;3.23;;;1.20;;
17913;SDS011;9082;50.742;8.238;2022-07-06T09:36:06;7.70;;;1.30;;
17913;SDS011;9082;50.742;8.238;2022-07-06T09:38:33;5.87;;;1.20;;
17913;SDS011;9082;50.742;8.238;2022-07-06T09:41:01;6.37;;;1.23;;
17913;SDS011;9082;50.742;8.238;2022-07-06T09:43:28;7.60;;;1.10;;
17913;SDS011;9082;50.742;8.238;2022-07-06T09:45:58;3.47;;;1.30;;
17913;SDS011;9082;50.742;8.238;2022-07-06T09:48:27;5.00;;;1.33;;
17913;SDS011;9082;50.742;8.238;2022-07-06T09:50:56;6.27;;;1.23;;
17913;SDS011;9082;50.742;8.238;2022-07-06T09:53:25;2.83;;;1.10;;
17913;SDS011;9082;50.742;8.238;2022-07-06T09:55:55;4.00;;;1.20;;
17913;SDS011;9082;50.742;8.238;2022-07-06T09:58:24;3.37;;;1.10;;
17913;SDS011;9082;50.742;8.238;2022-07-06T10:00:52;6.73;;;1.00;;
17913;SDS011;9082;50.742;8.238;2022-07-06T10:03:19;4.43;;;1.03;;
17913;SDS011;9082;50.742;8.238;2022-07-06T10:05:48;2.57;;;1.10;;
17913;SDS011;9082;50.742;8.238;2022-07-06T10:08:16;2.47;;;1.10;;
17913;SDS011;9082;50.742;8.238;2022-07-06T10:10:44;1.57;;;0.77;;
17913;SDS011;9082;50.742;8.238;2022-07-06T10:13:13;2.67;;;0.90;;
17913;SDS011;9082;50.742;8.238;2022-07-06T10:15:42;2.70;;;1.03;;
17913;SDS011;9082;50.742;8.238;2022-07-06T10:18:10;3.70;;;1.27;;
17913;SDS011;9082;50.742;8.238;2022-07-06T10:20:38;3.17;;;1.03;;
17913;SDS011;9082;50.742;8.238;2022-07-06T10:23:09;1.77;;;1.20;;
17913;SDS011;9082;50.742;8.238;2022-07-06T10:25:36;2.93;;;1.13;;
17913;SDS011;9082;50.742;8.238;2022-07-06T10:28:04;2.63;;;1.23;;
17913;SDS011;9082;50.742;8.238;2022-07-06T10:30:39;4.10;;;1.23;;
17913;SDS011;9082;50.742;8.238;2022-07-06T10:33:06;2.37;;;0.90;;
17913;SDS011;9082;50.742;8.238;2022-07-06T10:35:34;2.63;;;1.03;;
17913;SDS011;9082;50.742;8.238;2022-07-06T10:38:06;6.67;;;1.20;;
17913;SDS011;9082;50.742;8.238;2022-07-06T10:40:34;4.70;;;1.17;;
17913;SDS011;9082;50.742;8.238;2022-07-06T10:43:31;3.83;;;1.40;;
17913;SDS011;9082;50.742;8.238;2022-07-06T10:45:59;2.40;;;1.10;;
17913;SDS011;9082;50.742;8.238;2022-07-06T10:48:35;2.73;;;1.13;;
17913;SDS011;9082;50.742;8.238;2022-07-06T10:51:03;4.43;;;1.20;;
17913;SDS011;9082;50.742;8.238;2022-07-06T10:53:33;2.80;;;1.00;;
17913;SDS011;9082;50.742;8.238;2022-07-06T10:56:00;2.57;;;1.03;;
17913;SDS011;9082;50.742;8.238;2022-07-06T10:58:36;3.93;;;1.10;;
17913;SDS011;9082;50.742;8.238;2022-07-06T11:01:05;2.83;;;1.10;;
17913;SDS011;9082;50.742;8.238;2022-07-06T11:03:33;2.43;;;1.13;;
17913;SDS011;9082;50.742;8.238;2022-07-06T11:06:01;4.17;;;1.40;;
17913;SDS011;9082;50.742;8.238;2022-07-06T11:08:46;4.10;;;1.10;;
17913;SDS011;9082;50.742;8.238;2022-07-06T11:11:17;4.10;;;0.90;;
17913;SDS011;9082;50.742;8.238;2022-07-06T11:13:49;3.00;;;1.00;;
17913;SDS011;9082;50.742;8.238;2022-07-06T11:16:24;3.97;;;1.30;;
17913;SDS011;9082;50.742;8.238;2022-07-06T11:18:59;3.80;;;1.10;;
17913;SDS011;9082;50.742;8.238;2022-07-06T11:21:34;4.93;;;1.10;;
17913;SDS011;9082;50.742;8.238;2022-07-06T11:24:04;2.90;;;1.20;;
17913;SDS011;9082;50.742;8.238;2022-07-06T11:26:31;2.20;;;1.20;;
17913;SDS011;9082;50.742;8.238;2022-07-06T11:29:02;2.50;;;1.17;;
17913;SDS011;9082;50.742;8.238;2022-07-06T11:31:30;2.37;;;1.17;;
17913;SDS011;9082;50.742;8.238;2022-07-06T11:33:57;4.07;;;1.57;;
17913;SDS011;9082;50.742;8.238;2022-07-06T11:36:24;3.90;;;1.60;;
17913;SDS011;9082;50.742;8.238;2022-07-06T11:38:55;3.13;;;1.33;;
17913;SDS011;9082;50.742;8.238;2022-07-06T11:41:25;3.33;;;1.20;;
17913;SDS011;9082;50.742;8.238;2022-07-06T11:43:53;4.03;;;1.40;;
17913;SDS011;9082;50.742;8.238;2022-07-06T11:46:20;4.83;;;1.30;;
17913;SDS011;9082;50.742;8.238;2022-07-06T11:48:48;3.73;;;1.40;;
17913;SDS011;9082;50.742;8.238;2022-07-06T11:51:16;5.87;;;1.60;;
17913;SDS011;9082;50.742;8.238;2022-07-06T11:53:44;2.10;;;1.23;;
17913;SDS011;9082;50.742;8.238;2022-07-06T11:56:14;3.50;;;1.57;;
17913;SDS011;9082;50.742;8.238;2022-07-06T11:58:45;6.70;;;1.30;;
17913;SDS011;9082;50.742;8.238;2022-07-06T12:01:13;2.60;;;1.27;;
17913;SDS011;9082;50.742;8.238;2022-07-06T12:03:41;2.87;;;1.10;;
17913;SDS011;9082;50.742;8.238;2022-07-06T12:06:17;6.90;;;1.17;;
17913;SDS011;9082;50.742;8.238;2022-07-06T12:08:45;2.63;;;1.23;;
17913;SDS011;9082;50.742;8.238;2022-07-06T12:11:16;2.63;;;1.37;;
17913;SDS011;9082;50.742;8.238;2022-07-06T12:13:47;4.23;;;1.33;;
17913;SDS011;9082;50.742;8.238;2022-07-06T12:16:14;2.87;;;1.40;;
17913;SDS011;9082;50.742;8.238;2022-07-06T12:18:42;3.57;;;1.27;;
17913;SDS011;9082;50.742;8.238;2022-07-06T12:21:17;2.40;;;1.07;;
17913;SDS011;9082;50.742;8.238;2022-07-06T12:23:58;3.20;;;1.47;;
17913;SDS011;9082;50.742;8.238;2022-07-06T12:26:26;3.53;;;1.30;;
17913;SDS011;9082;50.742;8.238;2022-07-06T12:29:03;2.93;;;1.33;;
17913;SDS011;9082;50.742;8.238;2022-07-06T12:31:33;4.17;;;1.30;;
17913;SDS011;9082;50.742;8.238;2022-07-06T12:34:01;4.20;;;1.40;;
17913;SDS011;9082;50.742;8.238;2022-07-06T12:36:29;3.50;;;1.30;;
17913;SDS011;9082;50.742;8.238;2022-07-06T12:38:56;3.00;;;1.20;;
17913;SDS011;9082;50.742;8.238;2022-07-06T12:41:25;5.43;;;1.23;;
17913;SDS011;9082;50.742;8.238;2022-07-06T12:43:59;9.97;;;1.40;;
17913;SDS011;9082;50.742;8.238;2022-07-06T12:46:28;6.00;;;1.40;;
17913;SDS011;9082;50.742;8.238;2022-07-06T12:48:56;2.43;;;1.20;;
17913;SDS011;9082;50.742;8.238;2022-07-06T12:51:24;1.63;;;0.97;;
17913;SDS011;9082;50.742;8.238;2022-07-06T12:53:52;4.80;;;1.60;;
17913;SDS011;9082;50.742;8.238;2022-07-06T12:56:20;3.07;;;1.33;;
17913;SDS011;9082;50.742;8.238;2022-07-06T12:58:55;3.43;;;1.30;;
17913;SDS011;9082;50.742;8.238;2022-07-06T13:01:30;1.40;;;1.00;;
17913;SDS011;9082;50.742;8.238;2022-07-06T13:04:01;3.03;;;1.20;;
17913;SDS011;9082;50.742;8.238;2022-07-06T13:06:30;2.33;;;1.00;;
17913;SDS011;9082;50.742;8.238;2022-07-06T13:08:59;2.10;;;1.20;;
17913;SDS011;9082;50.742;8.238;2022-07-06T13:14:34;1.50;;;1.00;;
17913;SDS011;9082;50.742;8.238;2022-07-06T13:17:01;5.43;;;1.43;;
17913;SDS011;9082;50.742;8.238;2022-07-06T13:19:44;7.03;;;1.33;;
17913;SDS011;9082;50.742;8.238;2022-07-06T13:22:11;2.60;;;1.00;;
17913;SDS011;9082;50.742;8.238;2022-07-06T13:24:39;5.63;;;1.40;;
17913;SDS011;9082;50.742;8.238;2022-07-06T13:27:07;6.13;;;1.93;;
17913;SDS011;9082;50.742;8.238;2022-07-06T13:29:34;3.03;;;1.50;;
17913;SDS011;9082;50.742;8.238;2022-07-06T13:32:05;4.07;;;1.40;;
17913;SDS011;9082;50.742;8.238;2022-07-06T13:34:32;8.20;;;1.60;;
17913;SDS011;9082;50.742;8.238;2022-07-06T13:37:02;2.53;;;1.20;;
17913;SDS011;9082;50.742;8.238;2022-07-06T13:39:30;5.20;;;1.10;;
17913;SDS011;9082;50.742;8.238;2022-07-06T13:41:57;2.87;;;1.20;;
17913;SDS011;9082;50.742;8.238;2022-07-06T13:44:28;6.03;;;1.80;;
17913;SDS011;9082;50.742;8.238;2022-07-06T13:46:55;8.63;;;1.70;;
17913;SDS011;9082;50.742;8.238;2022-07-06T13:49:23;2.17;;;1.10;;
17913;SDS011;9082;50.742;8.238;2022-07-06T13:51:56;2.77;;;1.10;;
17913;SDS011;9082;50.742;8.238;2022-07-06T13:54:29;2.97;;;1.40;;
17913;SDS011;9082;50.742;8.238;2022-07-06T13:56:57;2.57;;;1.30;;
17913;SDS011;9082;50.742;8.238;2022-07-06T13:59:27;3.23;;;1.13;;
17913;SDS011;9082;50.742;8.238;2022-07-06T14:01:58;4.83;;;1.17;;
17913;SDS011;9082;50.742;8.238;2022-07-06T14:04:46;2.60;;;1.20;;
17913;SDS011;9082;50.742;8.238;2022-07-06T14:07:13;5.70;;;1.10;;
17913;SDS011;9082;50.742;8.238;2022-07-06T14:09:42;2.27;;;1.00;;
17913;SDS011;9082;50.742;8.238;2022-07-06T14:12:10;4.53;;;1.63;;
17913;SDS011;9082;50.742;8.238;2022-07-06T14:14:37;8.47;;;1.30;;
17913;SDS011;9082;50.742;8.238;2022-07-06T14:17:04;2.30;;;1.23;;
17913;SDS011;9082;50.742;8.238;2022-07-06T14:19:32;4.33;;;1.60;;
17913;SDS011;9082;50.742;8.238;2022-07-06T14:22:02;7.97;;;1.50;;
17913;SDS011;9082;50.742;8.238;2022-07-06T14:24:30;7.17;;;1.30;;
17913;SDS011;9082;50.742;8.238;2022-07-06T14:27:08;6.47;;;1.57;;
17913;SDS011;9082;50.742;8.238;2022-07-06T14:29:37;3.60;;;1.33;;
17913;SDS011;9082;50.742;8.238;2022-07-06T14:32:04;2.63;;;1.70;;
17913;SDS011;9082;50.742;8.238;2022-07-06T14:34:31;5.37;;;1.83;;
17913;SDS011;9082;50.742;8.238;2022-07-06T14:36:59;6.33;;;2.07;;
17913;SDS011;9082;50.742;8.238;2022-07-06T14:39:29;3.67;;;1.80;;
17913;SDS011;9082;50.742;8.238;2022-07-06T14:41:57;3.37;;;1.90;;
17913;SDS011;9082;50.742;8.238;2022-07-06T14:44:26;5.73;;;1.70;;
17913;SDS011;9082;50.742;8.238;2022-07-06T14:46:57;6.47;;;1.90;;
17913;SDS011;9082;50.742;8.238;2022-07-06T14:49:24;3.83;;;2.27;;
17913;SDS011;9082;50.742;8.238;2022-07-06T14:51:54;6.10;;;1.90;;
17913;SDS011;9082;50.742;8.238;2022-07-06T14:54:22;4.57;;;1.70;;
17913;SDS011;9082;50.742;8.238;2022-07-06T14:56:50;4.60;;;2.10;;
17913;SDS011;9082;50.742;8.238;2022-07-06T14:59:17;3.40;;;1.60;;
17913;SDS011;9082;50.742;8.238;2022-07-06T15:01:47;4.00;;;1.83;;
17913;SDS011;9082;50.742;8.238;2022-07-06T15:04:14;5.67;;;2.30;;
17913;SDS011;9082;50.742;8.238;2022-07-06T15:09:50;2.93;;;1.70;;
17913;SDS011;9082;50.742;8.238;2022-07-06T15:12:17;3.93;;;1.53;;
17913;SDS011;9082;50.742;8.238;2022-07-06T15:14:45;5.03;;;1.80;;
17913;SDS011;9082;50.742;8.238;2022-07-06T15:17:14;15.83;;;1.80;;
17913;SDS011;9082;50.742;8.238;2022-07-06T15:19:42;5.33;;;1.83;;
17913;SDS011;9082;50.742;8.238;2022-07-06T15:22:09;2.80;;;1.40;;